KTRL/TRL METAR and TAF weather

Enter ICAO airport designator
Station Type Date Time Source
KTRL METAR 2021/04/17 00:53 UTC NOAA

KTRL 170053Z AUTO 35008KT 10SM OVC007 13/12 A2989 RMK AO2 SLP119 T01330122


Station Type Date Time Source
KTRL Decoded METAR 2021/04/17 00:53 UTC NOAA

TERRELL MUNICIPAL AIRPORT, TX, United States (KTRL) 32-43N 96-16W 144M
Apr 16, 2021 - 08:53 PM EDT / 2021.04.17 0053 UTC
Wind: from the N (350 degrees) at 9 MPH (8 KT):0
Visibility: 10 mile(s):0
Sky conditions: overcast
Temperature: 55.9 F (13.3 C)
Dew Point: 54.0 F (12.2 C)
Relative Humidity: 93%
Pressure (altimeter): 29.89 in. Hg (1012 hPa)
ob: KTRL 170053Z AUTO 35008KT 10SM OVC007 13/12 A2989 RMK AO2 SLP119 T01330122
cycle: 1

Station Type Date Time Source
KTRL TAF UTC NOAA

Error!

Example: see airport list